sensor_id;sensor_type;location;lat;lon;timestamp;temperature;humidity
3818;DHT22;1924;48.078;11.516;2023-08-12T00:01:16;19.10;99.90
3818;DHT22;1924;48.078;11.516;2023-08-12T00:03:47;19.10;99.90
3818;DHT22;1924;48.078;11.516;2023-08-12T00:06:14;19.00;99.90
3818;DHT22;1924;48.078;11.516;2023-08-12T00:08:41;19.00;99.90
3818;DHT22;1924;48.078;11.516;2023-08-12T00:11:08;19.00;99.90
3818;DHT22;1924;48.078;11.516;2023-08-12T00:13:34;19.00;99.90
3818;DHT22;1924;48.078;11.516;2023-08-12T00:16:01;18.90;99.90
3818;DHT22;1924;48.078;11.516;2023-08-12T00:18:28;18.80;99.90
3818;DHT22;1924;48.078;11.516;2023-08-12T00:20:56;18.80;99.90
3818;DHT22;1924;48.078;11.516;2023-08-12T00:23:23;18.80;99.90
3818;DHT22;1924;48.078;11.516;2023-08-12T00:25:49;18.80;99.90
3818;DHT22;1924;48.078;11.516;2023-08-12T00:28:16;18.80;99.90
3818;DHT22;1924;48.078;11.516;2023-08-12T00:30:43;18.80;99.90
3818;DHT22;1924;48.078;11.516;2023-08-12T00:33:09;18.80;99.90
3818;DHT22;1924;48.078;11.516;2023-08-12T00:35:36;18.80;99.90
3818;DHT22;1924;48.078;11.516;2023-08-12T00:38:04;18.70;99.90
3818;DHT22;1924;48.078;11.516;2023-08-12T00:40:32;18.70;99.90
3818;DHT22;1924;48.078;11.516;2023-08-12T04:00:51;17.20;99.90
3818;DHT22;1924;48.078;11.516;2023-08-12T04:03:18;17.20;99.90
3818;DHT22;1924;48.078;11.516;2023-08-12T04:05:48;17.30;99.90
3818;DHT22;1924;48.078;11.516;2023-08-12T04:08:17;17.30;99.90
3818;DHT22;1924;48.078;11.516;2023-08-12T04:10:45;17.30;99.90
3818;DHT22;1924;48.078;11.516;2023-08-12T04:13:13;17.30;99.90
3818;DHT22;1924;48.078;11.516;2023-08-12T04:15:40;17.10;99.90
3818;DHT22;1924;48.078;11.516;2023-08-12T04:18:08;17.10;99.90
3818;DHT22;1924;48.078;11.516;2023-08-12T04:20:34;17.10;99.90
3818;DHT22;1924;48.078;11.516;2023-08-12T04:23:01;17.10;99.90
3818;DHT22;1924;48.078;11.516;2023-08-12T04:25:28;17.10;99.90
3818;DHT22;1924;48.078;11.516;2023-08-12T04:27:55;17.10;99.90
3818;DHT22;1924;48.078;11.516;2023-08-12T04:30:22;17.10;99.90
3818;DHT22;1924;48.078;11.516;2023-08-12T04:32:48;17.10;99.90
3818;DHT22;1924;48.078;11.516;2023-08-12T04:35:16;17.10;99.90
3818;DHT22;1924;48.078;11.516;2023-08-12T04:37:43;17.10;99.90
3818;DHT22;1924;48.078;11.516;2023-08-12T04:40:10;17.10;99.90
3818;DHT22;1924;48.078;11.516;2023-08-12T04:42:38;17.10;99.90
3818;DHT22;1924;48.078;11.516;2023-08-12T04:45:06;17.10;99.90
3818;DHT22;1924;48.078;11.516;2023-08-12T04:47:33;17.10;99.90
3818;DHT22;1924;48.078;11.516;2023-08-12T04:50:00;17.10;99.90
3818;DHT22;1924;48.078;11.516;2023-08-12T04:52:28;17.10;99.90
3818;DHT22;1924;48.078;11.516;2023-08-12T04:54:54;17.00;99.90
3818;DHT22;1924;48.078;11.516;2023-08-12T04:57:21;17.10;99.90
3818;DHT22;1924;48.078;11.516;2023-08-12T04:59:48;17.20;99.90
3818;DHT22;1924;48.078;11.516;2023-08-12T05:02:15;17.40;99.90
3818;DHT22;1924;48.078;11.516;2023-08-12T05:04:47;17.60;99.90
3818;DHT22;1924;48.078;11.516;2023-08-12T05:07:14;17.90;99.90
3818;DHT22;1924;48.078;11.516;2023-08-12T05:09:42;18.20;99.90
3818;DHT22;1924;48.078;11.516;2023-08-12T05:12:09;18.30;99.90
3818;DHT22;1924;48.078;11.516;2023-08-12T05:14:36;18.30;99.90
3818;DHT22;1924;48.078;11.516;2023-08-12T05:17:03;18.40;99.90
3818;DHT22;1924;48.078;11.516;2023-08-12T05:19:29;18.50;99.90
3818;DHT22;1924;48.078;11.516;2023-08-12T05:21:56;18.50;99.90
3818;DHT22;1924;48.078;11.516;2023-08-12T05:24:23;18.60;99.90
3818;DHT22;1924;48.078;11.516;2023-08-12T05:26:51;18.70;99.90
3818;DHT22;1924;48.078;11.516;2023-08-12T05:29:18;18.80;99.90
3818;DHT22;1924;48.078;11.516;2023-08-12T05:31:44;18.90;99.90
3818;DHT22;1924;48.078;11.516;2023-08-12T05:34:11;18.90;99.90
3818;DHT22;1924;48.078;11.516;2023-08-12T05:36:38;19.00;99.90
3818;DHT22;1924;48.078;11.516;2023-08-12T05:39:05;19.20;99.90
3818;DHT22;1924;48.078;11.516;2023-08-12T05:41:31;19.40;99.90
3818;DHT22;1924;48.078;11.516;2023-08-12T05:43:59;19.60;99.90
3818;DHT22;1924;48.078;11.516;2023-08-12T05:46:26;19.90;99.90
3818;DHT22;1924;48.078;11.516;2023-08-12T05:48:53;20.20;99.90
3818;DHT22;1924;48.078;11.516;2023-08-12T05:51:19;20.50;99.90
3818;DHT22;1924;48.078;11.516;2023-08-12T05:53:46;20.80;99.90
3818;DHT22;1924;48.078;11.516;2023-08-12T05:56:13;21.30;99.90
3818;DHT22;1924;48.078;11.516;2023-08-12T05:58:40;21.70;99.90
3818;DHT22;1924;48.078;11.516;2023-08-12T06:01:08;22.10;99.90
3818;DHT22;1924;48.078;11.516;2023-08-12T06:03:34;22.50;99.90
3818;DHT22;1924;48.078;11.516;2023-08-12T06:06:01;22.70;99.90
3818;DHT22;1924;48.078;11.516;2023-08-12T06:08:28;22.90;99.90
3818;DHT22;1924;48.078;11.516;2023-08-12T06:10:54;23.00;99.90
3818;DHT22;1924;48.078;11.516;2023-08-12T06:13:21;23.00;99.90
3818;DHT22;1924;48.078;11.516;2023-08-12T06:15:48;23.10;99.90
3818;DHT22;1924;48.078;11.516;2023-08-12T06:18:16;23.20;99.90
3818;DHT22;1924;48.078;11.516;2023-08-12T06:20:43;23.30;99.90
3818;DHT22;1924;48.078;11.516;2023-08-12T06:23:09;23.40;99.90
3818;DHT22;1924;48.078;11.516;2023-08-12T06:25:36;23.50;99.90
3818;DHT22;1924;48.078;11.516;2023-08-12T06:28:03;23.60;99.90
3818;DHT22;1924;48.078;11.516;2023-08-12T06:30:30;23.60;99.90
3818;DHT22;1924;48.078;11.516;2023-08-12T06:32:57;23.60;99.90
3818;DHT22;1924;48.078;11.516;2023-08-12T06:35:25;23.80;99.90
3818;DHT22;1924;48.078;11.516;2023-08-12T06:37:52;23.70;99.90
3818;DHT22;1924;48.078;11.516;2023-08-12T06:40:19;23.50;99.90
3818;DHT22;1924;48.078;11.516;2023-08-12T06:42:45;23.50;99.90
3818;DHT22;1924;48.078;11.516;2023-08-12T06:45:12;23.50;99.90
3818;DHT22;1924;48.078;11.516;2023-08-12T06:47:39;23.60;99.90
3818;DHT22;1924;48.078;11.516;2023-08-12T06:50:07;23.70;99.90
3818;DHT22;1924;48.078;11.516;2023-08-12T06:52:35;23.80;99.90
3818;DHT22;1924;48.078;11.516;2023-08-12T06:55:03;23.70;99.90
3818;DHT22;1924;48.078;11.516;2023-08-12T06:57:29;23.70;99.90
3818;DHT22;1924;48.078;11.516;2023-08-12T06:59:56;23.70;99.90
3818;DHT22;1924;48.078;11.516;2023-08-12T07:02:23;23.60;99.90
3818;DHT22;1924;48.078;11.516;2023-08-12T07:04:49;23.70;99.90
3818;DHT22;1924;48.078;11.516;2023-08-12T07:07:16;23.80;99.90
3818;DHT22;1924;48.078;11.516;2023-08-12T07:09:44;23.80;99.90
3818;DHT22;1924;48.078;11.516;2023-08-12T07:12:11;23.90;99.90
3818;DHT22;1924;48.078;11.516;2023-08-12T07:14:38;23.90;99.90
3818;DHT22;1924;48.078;11.516;2023-08-12T07:17:04;23.80;99.90
3818;DHT22;1924;48.078;11.516;2023-08-12T07:19:31;23.80;99.90
3818;DHT22;1924;48.078;11.516;2023-08-12T07:21:58;23.80;99.90
3818;DHT22;1924;48.078;11.516;2023-08-12T07:24:24;23.90;99.90
3818;DHT22;1924;48.078;11.516;2023-08-12T07:26:53;24.00;99.90
3818;DHT22;1924;48.078;11.516;2023-08-12T07:29:19;24.00;99.90
3818;DHT22;1924;48.078;11.516;2023-08-12T07:31:46;24.00;99.90
3818;DHT22;1924;48.078;11.516;2023-08-12T07:34:13;24.00;99.90
3818;DHT22;1924;48.078;11.516;2023-08-12T07:36:40;24.00;99.90
3818;DHT22;1924;48.078;11.516;2023-08-12T07:39:07;24.10;99.90
3818;DHT22;1924;48.078;11.516;2023-08-12T07:41:34;24.20;99.90
3818;DHT22;1924;48.078;11.516;2023-08-12T07:44:02;24.30;99.90
3818;DHT22;1924;48.078;11.516;2023-08-12T07:46:29;24.30;99.90
3818;DHT22;1924;48.078;11.516;2023-08-12T07:48:56;24.40;99.90
3818;DHT22;1924;48.078;11.516;2023-08-12T07:51:22;24.30;99.90
3818;DHT22;1924;48.078;11.516;2023-08-12T07:53:49;24.30;99.90
3818;DHT22;1924;48.078;11.516;2023-08-12T07:56:16;24.40;99.90
3818;DHT22;1924;48.078;11.516;2023-08-12T07:58:43;24.50;99.90
3818;DHT22;1924;48.078;11.516;2023-08-12T08:01:12;24.60;99.90
3818;DHT22;1924;48.078;11.516;2023-08-12T08:03:39;24.70;99.90
3818;DHT22;1924;48.078;11.516;2023-08-12T08:06:05;24.50;99.90
3818;DHT22;1924;48.078;11.516;2023-08-12T08:08:32;24.40;99.90
3818;DHT22;1924;48.078;11.516;2023-08-12T08:10:59;24.50;99.90
3818;DHT22;1924;48.078;11.516;2023-08-12T08:13:26;24.50;99.90
3818;DHT22;1924;48.078;11.516;2023-08-12T08:15:52;24.70;99.90
3818;DHT22;1924;48.078;11.516;2023-08-12T08:18:20;24.80;99.90
3818;DHT22;1924;48.078;11.516;2023-08-12T08:20:47;24.90;99.90
3818;DHT22;1924;48.078;11.516;2023-08-12T08:23:14;24.90;99.90
3818;DHT22;1924;48.078;11.516;2023-08-12T08:25:41;24.90;99.90
3818;DHT22;1924;48.078;11.516;2023-08-12T08:28:07;24.90;99.90
3818;DHT22;1924;48.078;11.516;2023-08-12T08:30:34;25.00;99.90
3818;DHT22;1924;48.078;11.516;2023-08-12T08:33:01;25.10;99.90
3818;DHT22;1924;48.078;11.516;2023-08-12T08:35:29;25.20;99.90
3818;DHT22;1924;48.078;11.516;2023-08-12T08:37:56;25.20;99.80
3818;DHT22;1924;48.078;11.516;2023-08-12T08:40:23;25.20;99.90
3818;DHT22;1924;48.078;11.516;2023-08-12T08:42:52;25.20;99.90
3818;DHT22;1924;48.078;11.516;2023-08-12T08:45:21;25.10;99.90
3818;DHT22;1924;48.078;11.516;2023-08-12T08:47:48;25.10;99.90
3818;DHT22;1924;48.078;11.516;2023-08-12T08:50:16;25.20;98.40
3818;DHT22;1924;48.078;11.516;2023-08-12T08:52:45;25.20;99.20
3818;DHT22;1924;48.078;11.516;2023-08-12T08:55:12;25.20;99.30
3818;DHT22;1924;48.078;11.516;2023-08-12T08:57:40;25.10;99.50
3818;DHT22;1924;48.078;11.516;2023-08-12T09:00:08;25.00;99.50
3818;DHT22;1924;48.078;11.516;2023-08-12T09:02:36;25.00;99.70
3818;DHT22;1924;48.078;11.516;2023-08-12T09:05:05;24.90;99.60
3818;DHT22;1924;48.078;11.516;2023-08-12T09:07:32;24.90;99.90
3818;DHT22;1924;48.078;11.516;2023-08-12T09:10:02;24.90;99.90
3818;DHT22;1924;48.078;11.516;2023-08-12T09:12:30;24.90;99.90
3818;DHT22;1924;48.078;11.516;2023-08-12T09:14:58;25.00;99.90
3818;DHT22;1924;48.078;11.516;2023-08-12T09:17:24;25.00;99.90
3818;DHT22;1924;48.078;11.516;2023-08-12T09:19:51;25.00;99.90
3818;DHT22;1924;48.078;11.516;2023-08-12T09:22:18;25.00;99.90
3818;DHT22;1924;48.078;11.516;2023-08-12T09:24:45;25.10;99.90
3818;DHT22;1924;48.078;11.516;2023-08-12T09:27:17;25.00;99.90
3818;DHT22;1924;48.078;11.516;2023-08-12T09:29:44;25.00;99.90
3818;DHT22;1924;48.078;11.516;2023-08-12T09:32:11;25.20;99.90
3818;DHT22;1924;48.078;11.516;2023-08-12T09:34:44;25.50;99.90
3818;DHT22;1924;48.078;11.516;2023-08-12T09:37:12;25.70;99.90
3818;DHT22;1924;48.078;11.516;2023-08-12T09:39:40;25.70;99.90
3818;DHT22;1924;48.078;11.516;2023-08-12T09:42:06;25.80;99.90
3818;DHT22;1924;48.078;11.516;2023-08-12T09:44:36;25.70;99.90
3818;DHT22;1924;48.078;11.516;2023-08-12T09:47:03;25.70;99.90
3818;DHT22;1924;48.078;11.516;2023-08-12T09:49:30;25.50;99.90
3818;DHT22;1924;48.078;11.516;2023-08-12T09:51:57;25.30;99.90
3818;DHT22;1924;48.078;11.516;2023-08-12T09:54:26;25.30;99.90
3818;DHT22;1924;48.078;11.516;2023-08-12T09:56:57;25.20;99.90
3818;DHT22;1924;48.078;11.516;2023-08-12T09:59:25;25.20;99.90
3818;DHT22;1924;48.078;11.516;2023-08-12T10:01:55;25.20;99.90
3818;DHT22;1924;48.078;11.516;2023-08-12T10:04:23;25.20;99.90
3818;DHT22;1924;48.078;11.516;2023-08-12T10:06:52;25.30;99.90
3818;DHT22;1924;48.078;11.516;2023-08-12T10:09:19;25.40;99.90
3818;DHT22;1924;48.078;11.516;2023-08-12T10:11:47;25.40;99.90
3818;DHT22;1924;48.078;11.516;2023-08-12T10:14:14;25.30;99.90
3818;DHT22;1924;48.078;11.516;2023-08-12T10:16:45;25.30;99.90
3818;DHT22;1924;48.078;11.516;2023-08-12T10:19:16;25.40;99.90
3818;DHT22;1924;48.078;11.516;2023-08-12T10:21:44;25.50;99.90
3818;DHT22;1924;48.078;11.516;2023-08-12T10:24:11;25.60;99.90
3818;DHT22;1924;48.078;11.516;2023-08-12T10:26:38;25.70;99.90
3818;DHT22;1924;48.078;11.516;2023-08-12T10:29:06;25.90;99.90
3818;DHT22;1924;48.078;11.516;2023-08-12T10:31:33;26.00;99.90
3818;DHT22;1924;48.078;11.516;2023-08-12T10:34:00;26.10;99.90
3818;DHT22;1924;48.078;11.516;2023-08-12T10:36:28;26.20;99.90
3818;DHT22;1924;48.078;11.516;2023-08-12T10:38:56;26.40;99.90
3818;DHT22;1924;48.078;11.516;2023-08-12T10:41:23;26.70;99.90
3818;DHT22;1924;48.078;11.516;2023-08-12T10:43:54;26.70;99.90
3818;DHT22;1924;48.078;11.516;2023-08-12T10:46:22;26.80;99.90
3818;DHT22;1924;48.078;11.516;2023-08-12T10:49:03;26.90;99.90
3818;DHT22;1924;48.078;11.516;2023-08-12T10:51:46;27.10;99.90
3818;DHT22;1924;48.078;11.516;2023-08-12T10:54:14;27.50;99.90
3818;DHT22;1924;48.078;11.516;2023-08-12T10:57:03;27.70;99.90
3818;DHT22;1924;48.078;11.516;2023-08-12T10:59:53;27.90;99.90
3818;DHT22;1924;48.078;11.516;2023-08-12T11:02:22;28.00;99.00
3818;DHT22;1924;48.078;11.516;2023-08-12T11:04:53;28.20;99.70
3818;DHT22;1924;48.078;11.516;2023-08-12T11:07:23;28.30;99.00
3818;DHT22;1924;48.078;11.516;2023-08-12T11:09:55;28.50;98.60
3818;DHT22;1924;48.078;11.516;2023-08-12T11:12:30;28.60;99.00
3818;DHT22;1924;48.078;11.516;2023-08-12T11:14:58;28.90;99.40
3818;DHT22;1924;48.078;11.516;2023-08-12T11:17:32;28.70;94.60
3818;DHT22;1924;48.078;11.516;2023-08-12T11:19:59;28.70;94.50
3818;DHT22;1924;48.078;11.516;2023-08-12T11:22:28;28.80;95.70
3818;DHT22;1924;48.078;11.516;2023-08-12T11:24:55;28.80;92.80
3818;DHT22;1924;48.078;11.516;2023-08-12T11:27:22;28.90;95.30
3818;DHT22;1924;48.078;11.516;2023-08-12T11:29:49;29.00;93.80
3818;DHT22;1924;48.078;11.516;2023-08-12T11:32:16;29.00;91.50
3818;DHT22;1924;48.078;11.516;2023-08-12T11:34:44;29.30;93.50
3818;DHT22;1924;48.078;11.516;2023-08-12T11:37:10;29.30;92.60
3818;DHT22;1924;48.078;11.516;2023-08-12T11:39:39;29.50;92.40
3818;DHT22;1924;48.078;11.516;2023-08-12T11:42:05;29.40;91.50
3818;DHT22;1924;48.078;11.516;2023-08-12T11:44:32;29.50;88.50
3818;DHT22;1924;48.078;11.516;2023-08-12T11:46:59;29.50;88.00
3818;DHT22;1924;48.078;11.516;2023-08-12T11:49:26;29.40;88.60
3818;DHT22;1924;48.078;11.516;2023-08-12T11:51:52;29.50;88.70
3818;DHT22;1924;48.078;11.516;2023-08-12T11:54:19;29.60;91.10
3818;DHT22;1924;48.078;11.516;2023-08-12T11:56:48;29.60;88.80
3818;DHT22;1924;48.078;11.516;2023-08-12T11:59:15;29.70;91.30
3818;DHT22;1924;48.078;11.516;2023-08-12T12:01:46;29.60;84.60
3818;DHT22;1924;48.078;11.516;2023-08-12T12:04:14;29.70;88.50
3818;DHT22;1924;48.078;11.516;2023-08-12T12:06:41;29.80;90.30
3818;DHT22;1924;48.078;11.516;2023-08-12T12:09:10;29.80;86.10
3818;DHT22;1924;48.078;11.516;2023-08-12T12:11:37;30.00;90.00
3818;DHT22;1924;48.078;11.516;2023-08-12T12:14:07;30.00;83.30
3818;DHT22;1924;48.078;11.516;2023-08-12T12:16:40;30.00;85.60
3818;DHT22;1924;48.078;11.516;2023-08-12T12:19:14;30.00;84.30
3818;DHT22;1924;48.078;11.516;2023-08-12T12:21:42;30.10;86.00
3818;DHT22;1924;48.078;11.516;2023-08-12T12:24:11;30.10;90.30
3818;DHT22;1924;48.078;11.516;2023-08-12T12:26:37;29.70;84.60
3818;DHT22;1924;48.078;11.516;2023-08-12T12:29:06;29.30;82.50
3818;DHT22;1924;48.078;11.516;2023-08-12T12:31:34;29.10;83.00
3818;DHT22;1924;48.078;11.516;2023-08-12T12:34:01;29.10;87.20
3818;DHT22;1924;48.078;11.516;2023-08-12T12:36:29;28.90;88.20
3818;DHT22;1924;48.078;11.516;2023-08-12T12:38:56;28.80;86.30
3818;DHT22;1924;48.078;11.516;2023-08-12T12:41:22;28.70;86.10
3818;DHT22;1924;48.078;11.516;2023-08-12T12:43:49;28.90;85.00
3818;DHT22;1924;48.078;11.516;2023-08-12T12:46:17;28.90;84.50
3818;DHT22;1924;48.078;11.516;2023-08-12T12:48:44;28.90;83.90
3818;DHT22;1924;48.078;11.516;2023-08-12T12:51:11;29.00;80.20
3818;DHT22;1924;48.078;11.516;2023-08-12T12:53:38;29.20;86.10
3818;DHT22;1924;48.078;11.516;2023-08-12T12:56:05;29.40;81.10
3818;DHT22;1924;48.078;11.516;2023-08-12T12:58:32;29.50;83.80
3818;DHT22;1924;48.078;11.516;2023-08-12T13:00:59;29.80;86.40
3818;DHT22;1924;48.078;11.516;2023-08-12T13:03:27;29.90;80.00
3818;DHT22;1924;48.078;11.516;2023-08-12T13:05:54;29.80;83.60
3818;DHT22;1924;48.078;11.516;2023-08-12T13:08:21;29.60;84.70
3818;DHT22;1924;48.078;11.516;2023-08-12T13:10:48;29.30;85.20
3818;DHT22;1924;48.078;11.516;2023-08-12T13:13:15;29.00;85.50
3818;DHT22;1924;48.078;11.516;2023-08-12T13:15:43;28.60;87.50
3818;DHT22;1924;48.078;11.516;2023-08-12T13:18:10;28.50;89.80
3818;DHT22;1924;48.078;11.516;2023-08-12T13:20:38;28.30;89.50
3818;DHT22;1924;48.078;11.516;2023-08-12T13:23:05;28.20;88.50
3818;DHT22;1924;48.078;11.516;2023-08-12T13:25:33;28.20;90.50
3818;DHT22;1924;48.078;11.516;2023-08-12T13:28:00;28.50;91.20
3818;DHT22;1924;48.078;11.516;2023-08-12T13:30:27;28.50;88.40
3818;DHT22;1924;48.078;11.516;2023-08-12T13:32:54;28.70;87.40
3818;DHT22;1924;48.078;11.516;2023-08-12T13:35:21;28.60;89.20
3818;DHT22;1924;48.078;11.516;2023-08-12T13:37:49;28.50;86.10
3818;DHT22;1924;48.078;11.516;2023-08-12T13:40:16;28.50;86.70
3818;DHT22;1924;48.078;11.516;2023-08-12T13:42:43;28.50;85.90
3818;DHT22;1924;48.078;11.516;2023-08-12T13:45:11;28.40;83.80
3818;DHT22;1924;48.078;11.516;2023-08-12T13:47:38;28.60;85.00
3818;DHT22;1924;48.078;11.516;2023-08-12T13:50:06;28.90;86.10
3818;DHT22;1924;48.078;11.516;2023-08-12T13:52:33;29.10;86.20
3818;DHT22;1924;48.078;11.516;2023-08-12T13:55:01;29.30;83.60
3818;DHT22;1924;48.078;11.516;2023-08-12T13:57:29;29.40;81.70
3818;DHT22;1924;48.078;11.516;2023-08-12T13:59:55;29.40;81.80
3818;DHT22;1924;48.078;11.516;2023-08-12T14:02:22;29.40;83.40
3818;DHT22;1924;48.078;11.516;2023-08-12T14:04:49;29.20;83.80
3818;DHT22;1924;48.078;11.516;2023-08-12T14:07:16;29.20;83.50
3818;DHT22;1924;48.078;11.516;2023-08-12T14:09:45;29.20;83.80
3818;DHT22;1924;48.078;11.516;2023-08-12T14:12:13;29.30;83.50
3818;DHT22;1924;48.078;11.516;2023-08-12T14:14:40;29.40;81.00
3818;DHT22;1924;48.078;11.516;2023-08-12T14:17:07;29.50;82.40
3818;DHT22;1924;48.078;11.516;2023-08-12T14:19:39;29.60;83.80
3818;DHT22;1924;48.078;11.516;2023-08-12T14:22:05;29.60;80.30
3818;DHT22;1924;48.078;11.516;2023-08-12T14:24:32;29.60;82.20
3818;DHT22;1924;48.078;11.516;2023-08-12T14:26:59;29.50;82.30
3818;DHT22;1924;48.078;11.516;2023-08-12T14:29:27;29.30;83.00
3818;DHT22;1924;48.078;11.516;2023-08-12T14:31:54;29.10;83.20
3818;DHT22;1924;48.078;11.516;2023-08-12T14:34:20;29.00;83.10
3818;DHT22;1924;48.078;11.516;2023-08-12T14:36:47;28.80;84.20
3818;DHT22;1924;48.078;11.516;2023-08-12T14:39:14;28.80;85.90
3818;DHT22;1924;48.078;11.516;2023-08-12T14:41:40;28.70;85.30
3818;DHT22;1924;48.078;11.516;2023-08-12T14:44:07;28.60;85.80
3818;DHT22;1924;48.078;11.516;2023-08-12T14:46:35;28.40;84.50
3818;DHT22;1924;48.078;11.516;2023-08-12T14:49:02;28.40;85.20
3818;DHT22;1924;48.078;11.516;2023-08-12T14:51:29;28.30;85.40
3818;DHT22;1924;48.078;11.516;2023-08-12T14:53:56;28.30;86.60
3818;DHT22;1924;48.078;11.516;2023-08-12T14:56:23;28.10;86.40
3818;DHT22;1924;48.078;11.516;2023-08-12T14:58:49;28.10;86.80
3818;DHT22;1924;48.078;11.516;2023-08-12T15:01:16;28.10;87.30
3818;DHT22;1924;48.078;11.516;2023-08-12T15:03:44;27.90;87.40
3818;DHT22;1924;48.078;11.516;2023-08-12T15:06:11;27.80;87.00
3818;DHT22;1924;48.078;11.516;2023-08-12T15:08:39;27.70;87.50
3818;DHT22;1924;48.078;11.516;2023-08-12T15:11:06;27.60;87.10
3818;DHT22;1924;48.078;11.516;2023-08-12T15:13:32;27.50;87.10
3818;DHT22;1924;48.078;11.516;2023-08-12T15:15:59;27.40;87.10
3818;DHT22;1924;48.078;11.516;2023-08-12T15:18:26;27.30;87.00
3818;DHT22;1924;48.078;11.516;2023-08-12T15:20:54;27.20;85.70
3818;DHT22;1924;48.078;11.516;2023-08-12T15:23:20;27.20;84.60
3818;DHT22;1924;48.078;11.516;2023-08-12T15:25:47;27.10;84.80
3818;DHT22;1924;48.078;11.516;2023-08-12T15:28:14;27.10;83.60
3818;DHT22;1924;48.078;11.516;2023-08-12T15:30:41;27.00;84.70
3818;DHT22;1924;48.078;11.516;2023-08-12T15:33:08;27.00;87.00
3818;DHT22;1924;48.078;11.516;2023-08-12T15:35:34;26.90;86.50
3818;DHT22;1924;48.078;11.516;2023-08-12T15:38:03;26.80;87.20
3818;DHT22;1924;48.078;11.516;2023-08-12T15:40:29;26.70;88.40
3818;DHT22;1924;48.078;11.516;2023-08-12T15:42:56;26.70;88.60
3818;DHT22;1924;48.078;11.516;2023-08-12T15:45:23;26.60;88.00
3818;DHT22;1924;48.078;11.516;2023-08-12T15:47:50;26.60;87.70
3818;DHT22;1924;48.078;11.516;2023-08-12T15:50:19;26.60;88.00
3818;DHT22;1924;48.078;11.516;2023-08-12T15:52:45;26.60;89.30
3818;DHT22;1924;48.078;11.516;2023-08-12T15:55:13;26.60;88.80
3818;DHT22;1924;48.078;11.516;2023-08-12T15:57:40;26.50;89.10
3818;DHT22;1924;48.078;11.516;2023-08-12T16:00:08;26.50;89.30
3818;DHT22;1924;48.078;11.516;2023-08-12T16:02:36;26.50;89.60
3818;DHT22;1924;48.078;11.516;2023-08-12T16:05:03;26.40;89.90
3818;DHT22;1924;48.078;11.516;2023-08-12T16:07:31;26.40;90.10
3818;DHT22;1924;48.078;11.516;2023-08-12T16:09:58;26.50;89.40
3818;DHT22;1924;48.078;11.516;2023-08-12T16:12:26;26.50;90.20
3818;DHT22;1924;48.078;11.516;2023-08-12T16:14:53;26.50;90.00
3818;DHT22;1924;48.078;11.516;2023-08-12T16:17:19;26.50;90.00
3818;DHT22;1924;48.078;11.516;2023-08-12T16:19:46;26.50;90.00
3818;DHT22;1924;48.078;11.516;2023-08-12T16:22:13;26.50;89.20
3818;DHT22;1924;48.078;11.516;2023-08-12T16:24:40;26.50;88.50
3818;DHT22;1924;48.078;11.516;2023-08-12T16:27:07;26.50;87.80
3818;DHT22;1924;48.078;11.516;2023-08-12T16:29:35;26.40;88.30
3818;DHT22;1924;48.078;11.516;2023-08-12T16:32:02;26.40;88.40
3818;DHT22;1924;48.078;11.516;2023-08-12T16:34:29;26.30;87.10
3818;DHT22;1924;48.078;11.516;2023-08-12T16:36:55;26.30;87.30
3818;DHT22;1924;48.078;11.516;2023-08-12T16:39:22;26.20;86.90
3818;DHT22;1924;48.078;11.516;2023-08-12T16:41:50;26.20;86.80
3818;DHT22;1924;48.078;11.516;2023-08-12T16:44:17;26.30;86.50
3818;DHT22;1924;48.078;11.516;2023-08-12T16:46:45;26.30;86.30
3818;DHT22;1924;48.078;11.516;2023-08-12T16:49:12;26.20;86.90
3818;DHT22;1924;48.078;11.516;2023-08-12T16:51:38;26.20;87.10
3818;DHT22;1924;48.078;11.516;2023-08-12T16:54:05;26.30;87.40
3818;DHT22;1924;48.078;11.516;2023-08-12T16:56:32;26.30;87.50
3818;DHT22;1924;48.078;11.516;2023-08-12T16:58:58;26.30;88.00
3818;DHT22;1924;48.078;11.516;2023-08-12T17:01:25;26.30;87.50
3818;DHT22;1924;48.078;11.516;2023-08-12T17:03:53;26.30;87.40
3818;DHT22;1924;48.078;11.516;2023-08-12T17:06:25;26.20;87.50
3818;DHT22;1924;48.078;11.516;2023-08-12T17:08:51;26.20;87.70
3818;DHT22;1924;48.078;11.516;2023-08-12T17:11:19;26.20;88.20
3818;DHT22;1924;48.078;11.516;2023-08-12T17:13:46;26.10;88.40
3818;DHT22;1924;48.078;11.516;2023-08-12T17:16:12;26.10;88.00
3818;DHT22;1924;48.078;11.516;2023-08-12T17:18:39;26.00;87.60
3818;DHT22;1924;48.078;11.516;2023-08-12T17:21:07;26.00;88.00
3818;DHT22;1924;48.078;11.516;2023-08-12T17:23:34;25.90;89.30
3818;DHT22;1924;48.078;11.516;2023-08-12T17:26:01;25.90;89.20
3818;DHT22;1924;48.078;11.516;2023-08-12T17:28:27;25.80;89.00
3818;DHT22;1924;48.078;11.516;2023-08-12T17:30:54;25.70;89.80
3818;DHT22;1924;48.078;11.516;2023-08-12T17:33:21;25.60;90.10
3818;DHT22;1924;48.078;11.516;2023-08-12T17:35:47;25.60;90.10
3818;DHT22;1924;48.078;11.516;2023-08-12T17:38:15;25.50;90.20
3818;DHT22;1924;48.078;11.516;2023-08-12T17:40:42;25.40;90.40
3818;DHT22;1924;48.078;11.516;2023-08-12T17:43:09;25.40;90.60
3818;DHT22;1924;48.078;11.516;2023-08-12T17:45:35;25.30;90.80
3818;DHT22;1924;48.078;11.516;2023-08-12T17:48:02;25.30;91.20
3818;DHT22;1924;48.078;11.516;2023-08-12T17:50:29;25.30;91.30
3818;DHT22;1924;48.078;11.516;2023-08-12T17:52:56;25.20;91.30
3818;DHT22;1924;48.078;11.516;2023-08-12T17:55:24;25.20;91.40
3818;DHT22;1924;48.078;11.516;2023-08-12T17:57:51;25.20;91.50
3818;DHT22;1924;48.078;11.516;2023-08-12T18:00:18;25.10;91.50
3818;DHT22;1924;48.078;11.516;2023-08-12T18:02:45;25.10;91.80
3818;DHT22;1924;48.078;11.516;2023-08-12T18:05:12;25.00;92.40
3818;DHT22;1924;48.078;11.516;2023-08-12T18:07:39;25.00;92.70
3818;DHT22;1924;48.078;11.516;2023-08-12T18:10:06;24.90;92.70
3818;DHT22;1924;48.078;11.516;2023-08-12T18:12:35;24.90;92.90
3818;DHT22;1924;48.078;11.516;2023-08-12T18:15:02;24.80;92.80
3818;DHT22;1924;48.078;11.516;2023-08-12T18:17:28;24.80;93.20
3818;DHT22;1924;48.078;11.516;2023-08-12T18:19:55;24.70;94.00
3818;DHT22;1924;48.078;11.516;2023-08-12T18:22:22;24.60;94.50
3818;DHT22;1924;48.078;11.516;2023-08-12T18:24:49;24.50;94.50
3818;DHT22;1924;48.078;11.516;2023-08-12T18:27:15;24.50;95.00
3818;DHT22;1924;48.078;11.516;2023-08-12T18:29:43;24.40;95.10
3818;DHT22;1924;48.078;11.516;2023-08-12T18:32:10;24.40;95.20
3818;DHT22;1924;48.078;11.516;2023-08-12T18:34:37;24.30;95.50
3818;DHT22;1924;48.078;11.516;2023-08-12T18:37:04;24.30;95.80
3818;DHT22;1924;48.078;11.516;2023-08-12T18:39:31;24.20;96.00
3818;DHT22;1924;48.078;11.516;2023-08-12T18:41:58;24.20;96.00
3818;DHT22;1924;48.078;11.516;2023-08-12T18:44:24;24.10;96.30
3818;DHT22;1924;48.078;11.516;2023-08-12T18:46:52;24.10;96.70
3818;DHT22;1924;48.078;11.516;2023-08-12T18:49:19;24.00;97.00
3818;DHT22;1924;48.078;11.516;2023-08-12T18:51:46;23.90;97.30
3818;DHT22;1924;48.078;11.516;2023-08-12T18:54:13;23.90;97.60
3818;DHT22;1924;48.078;11.516;2023-08-12T18:56:39;23.80;97.80
3818;DHT22;1924;48.078;11.516;2023-08-12T18:59:06;23.80;97.80
3818;DHT22;1924;48.078;11.516;2023-08-12T19:01:33;23.70;98.30
3818;DHT22;1924;48.078;11.516;2023-08-12T19:04:01;23.70;98.30